Weather observations for the past three days for
The Florida Keys - Marathon International Airport
| Date | Time (edt) | Wind (mph) | Vis. (mi.) | Weather | Sky Cond. | Temperature (ºF) | Relative Humidity | Wind Chill (°F) | Heat Index (°F) | Pressure | Precipitation (in) | ||||||
|---|---|---|---|---|---|---|---|---|---|---|---|---|---|---|---|---|---|
| Air | Dwpt | 6 hour | altimeter (in) | sea level (mb) | 1 hr | 3 hr | 6 hr | ||||||||||
| Max. | Min. | ||||||||||||||||
| 07 | 07:53 | SE 5 | 10.00 | Partly Cloudy | SCT023 | 80.1 | 73 | 80.1 | 79 | 79% | 84 | 30 | 1015.9 | ||||
| 07 | 06:53 | SE 7 | 10.00 | Partly Cloudy | SCT018 SCT023 | 79 | 73 | 82% | 82 | 29.98 | 1015.0 | ||||||
| 07 | 05:53 | SE 6 | 10.00 | A Few Clouds | FEW020 | 79 | 72 | 79% | 82 | 29.96 | 1014.6 | ||||||
| 07 | 04:53 | SE 7 | 10.00 | Fair | CLR | 79 | 71.1 | 77% | 82 | 29.96 | 1014.3 | ||||||
| 07 | 03:53 | SE 8 | 10.00 | A Few Clouds | FEW022 | 79 | 72 | 79% | 82 | 29.97 | 1014.7 | ||||||
| 07 | 02:53 | SE 9 | 10.00 | Partly Cloudy | SCT021 | 80.1 | 72 | 76% | 84 | 29.98 | 1015.0 | ||||||
| 07 | 01:53 | SE 9 | 10.00 | Fair | CLR | 80.1 | 72 | 81 | 79 | 76% | 84 | 29.99 | 1015.4 | ||||
| 07 | 00:53 | E 8 | 10.00 | Fair | CLR | 80.1 | 71.1 | 74% | 84 | 30.01 | 1016.0 | ||||||
| 06 | 23:53 | E 8 | 10.00 | Fair | CLR | 80.1 | 71.1 | 74% | 84 | 30.01 | 1016.1 | ||||||
| 06 | 22:53 | E 8 | 10.00 | Fair | CLR | 80.1 | 71.1 | 74% | 84 | 30.01 | 1016.1 | ||||||
| 06 | 21:53 | E 7 | 10.00 | Fair | CLR | 80.1 | 71.1 | 74% | 84 | 30 | 1016.0 | ||||||
| 06 | 20:53 | E 5 | 10.00 | Fair | CLR | 80.1 | 72 | 76% | 84 | 30.01 | 1016.1 | ||||||
| 06 | 19:53 | SE 6 | 10.00 | Fair | CLR | 81 | 72 | 84 | 81 | 74% | 85 | 30 | 1015.6 | ||||
| 06 | 18:53 | SE 6 | 10.00 | Fair | CLR | 82 | 71.1 | 69% | 86 | 29.99 | 1015.6 | ||||||
| 06 | 17:53 | E 6 | 10.00 | Fair | CLR | 82.9 | 72 | 70% | 88 | 29.98 | 1015.2 | ||||||
| 06 | 16:53 | SE 5 | 10.00 | Fair | CLR | 82.9 | 72 | 70% | 88 | 29.98 | 1015.1 | ||||||
| 06 | 15:53 | SE 7 | 10.00 | Fair | CLR | 82.9 | 72 | 70% | 88 | 29.99 | 1015.6 | ||||||
| 06 | 14:53 | SE 7 | 10.00 | Fair | CLR | 84 | 73 | 70% | 90 | 30.01 | 1016.3 | ||||||
| 06 | 13:53 | Vrbl 6 | 10.00 | Fair | CLR | 82.9 | 72 | 84 | 80.1 | 70% | 88 | 30.03 | 1016.8 | ||||
| 06 | 12:53 | SE 6 | 10.00 | Fair | CLR | 82.9 | 72 | 70% | 88 | 30.03 | 1016.9 | ||||||
| 06 | 11:53 | Vrbl 5 | 10.00 | Fair | CLR | 82.9 | 71.1 | 67% | 88 | 30.03 | 1017.0 | ||||||
| 06 | 10:53 | SE 6 | 10.00 | Fair | CLR | 82 | 72 | 72% | 87 | 30.03 | 1016.7 | ||||||
| 06 | 09:53 | SE 8 | 10.00 | Fair | CLR | 81 | 71.1 | 72% | 85 | 30.02 | 1016.5 | ||||||
| 06 | 08:53 | S 6 | 10.00 | Fair | CLR | 81 | 71.1 | 72% | 85 | 30.01 | 1016.1 | ||||||
| 06 | 07:53 | SE 5 | 10.00 | Fair | CLR | 80.1 | 70 | 80.1 | 75 | 71% | 83 | 30.01 | 1016.0 | ||||
| 06 | 06:53 | Calm | 10.00 | Fair | CLR | 78.1 | 70 | 76% | 80 | 29.99 | 1015.6 | ||||||
| 06 | 05:53 | Calm | 10.00 | A Few Clouds | FEW037 | 77 | 69.1 | 77% | 79 | 29.98 | 1015.2 | ||||||
| 06 | 04:53 | Calm | 10.00 | Partly Cloudy | FEW027 SCT035 | 77 | 70 | 79% | 79 | 29.97 | 1014.8 | ||||||
| 06 | 03:53 | Calm | 10.00 | Mostly Cloudy | SCT028 BKN038 | 75.9 | 70 | 82% | 77 | 29.97 | 1014.6 | ||||||
| 06 | 02:53 | Calm | 10.00 | Mostly Cloudy | BKN030 | 75.9 | 70 | 82% | 77 | 29.97 | 1014.7 | ||||||
| 06 | 01:53 | Calm | 10.00 | Fair | CLR | 77 | 70 | 81 | 77 | 79% | 79 | 29.98 | 1015.0 | ||||
| 06 | 00:53 | Calm | 10.00 | A Few Clouds | FEW033 | 79 | 69.1 | 72% | 82 | 30 | 1015.7 | ||||||
| 05 | 23:53 | Vrbl 3 | 10.00 | A Few Clouds | FEW037 | 80.1 | 69.1 | 69% | 83 | 30 | 1015.9 | ||||||
| 05 | 22:53 | Calm | 10.00 | Fair | CLR | 79 | 70 | 74% | 82 | 29.99 | 1015.5 | ||||||
| 05 | 21:53 | SW 5 | 10.00 | Fair | CLR | 80.1 | 69.1 | 69% | 83 | 29.97 | 1014.7 | ||||||
| 05 | 20:53 | Calm | 10.00 | Fair | CLR | 81 | 69.1 | 67% | 84 | 29.96 | 1014.4 | ||||||
| 05 | 19:53 | W 5 | 10.00 | Fair | CLR | 81 | 70 | 86 | 81 | 69% | 84 | 29.94 | 1013.8 | ||||
| 05 | 18:53 | NW 6 | 10.00 | Fair | CLR | 82 | 71.1 | 69% | 86 | 29.94 | 1013.8 | ||||||
| 05 | 17:53 | NW 6 | 10.00 | Fair | CLR | 82.9 | 69.1 | 63% | 87 | 29.93 | 1013.3 | ||||||
| 05 | 16:53 | Vrbl 5 | 10.00 | Fair | CLR | 84 | 69.1 | 61% | 88 | 29.93 | 1013.5 | ||||||
| 05 | 15:53 | NW 6 | 10.00 | Fair | CLR | 84 | 69.1 | 61% | 88 | 29.95 | 1014.0 | ||||||
| 05 | 14:53 | Vrbl 5 | 10.00 | Fair | CLR | 84.9 | 70 | 61% | 89 | 29.96 | 1014.5 | ||||||
| 05 | 13:53 | Vrbl 3 | 10.00 | Fair | CLR | 84 | 71.1 | 86 | 78.1 | 65% | 89 | 29.97 | 1014.9 | ||||
| 05 | 12:53 | N 5 | 10.00 | Fair | CLR | 84 | 69.1 | 61% | 88 | 29.98 | 1015.0 | ||||||
| 05 | 11:53 | N 6 | 10.00 | Fair | CLR | 82.9 | 72 | 70% | 88 | 29.98 | 1015.0 | ||||||
| 05 | 10:53 | Vrbl 5 | 10.00 | Fair | CLR | 82 | 72 | 72% | 87 | 29.98 | 1015.2 | ||||||
| 05 | 09:53 | Vrbl 5 | 10.00 | A Few Clouds | FEW020 | 81 | 73 | 77% | 86 | 29.97 | 1014.9 | ||||||
| 05 | 08:53 | N 3 | 10.00 | A Few Clouds | FEW029 | 80.1 | 73.9 | 82% | 85 | 29.96 | 1014.3 | ||||||
| 05 | 07:53 | Vrbl 3 | 10.00 | Fair | CLR | 78.1 | 75 | 79 | 73.9 | 90% | 81 | 29.94 | 1013.7 | 0.3 | |||
| 05 | 06:53 | Vrbl 3 | 10.00 | Mostly Cloudy | BKN016 | 75.9 | 73.9 | 94% | 75 | 29.92 | 1012.9 | ||||||
| 05 | 05:53 | Calm | 10.00 | Fair | CLR | 73.9 | 73 | 97% | 29.9 | 1012.4 | |||||||
| 05 | 04:53 | E 3 | 10.00 | Partly Cloudy | SCT060 | 73.9 | 72 | 94% | 29.9 | 1012.5 | 0.3 | ||||||
| 05 | 03:53 | Calm | 10.00 | Fair | CLR | 73.9 | 71.1 | 91% | 29.9 | 1012.3 | 0.29 | ||||||
| 05 | 02:53 | NW 5 | 10.00 | Light Rain | SCT019 BKN049 BKN065 | 78.1 | 73.9 | 87% | 81 | 29.9 | 1012.3 | 0.01 | |||||
| 05 | 01:53 | Calm | 10.00 | Mostly Cloudy | BKN085 | 78.1 | 73 | 80.1 | 78.1 | 85% | 81 | 29.92 | 1013.0 | ||||
| 05 | 00:53 | Calm | 10.00 | Overcast | SCT020 BKN027 OVC085 | 79 | 73 | 82% | 82 | 29.93 | 1013.5 | ||||||
| 04 | 23:53 | Calm | 10.00 | Mostly Cloudy | SCT018 BKN085 | 78.1 | 73 | 85% | 81 | 29.95 | 1014.2 | ||||||
| 04 | 22:53 | S 5 | 10.00 | Partly Cloudy | SCT085 | 79 | 72 | 79% | 82 | 29.94 | 1013.9 | ||||||
| 04 | 21:53 | SE 5 | 10.00 | Partly Cloudy | FEW018 SCT085 | 79 | 73 | 82% | 82 | 29.93 | 1013.5 | ||||||
| 04 | 20:53 | SE 7 | 10.00 | Mostly Cloudy | FEW018 BKN070 | 79 | 73 | 82% | 82 | 29.92 | 1013.0 | ||||||
| 04 | 19:53 | SE 3 | 10.00 | A Few Clouds | FEW018 | 79 | 73 | 82.9 | 79 | 82% | 82 | 29.91 | 1012.8 | ||||
| 04 | 18:53 | SE 6 | 10.00 | Fair | CLR | 80.1 | 72 | 76% | 84 | 29.9 | 1012.5 | ||||||
| 04 | 17:53 | SE 7 | 10.00 | Fair | CLR | 81 | 72 | 74% | 85 | 29.9 | 1012.4 | ||||||
| 04 | 16:53 | E 8 | 10.00 | Mostly Cloudy | BKN023 | 81 | 72 | 74% | 85 | 29.91 | 1012.6 | ||||||
| 04 | 15:53 | NE 7 | 10.00 | Fair | CLR | 82.9 | 73 | 72% | 89 | 29.92 | 1013.1 | ||||||
| 04 | 14:53 | Vrbl 6 | 10.00 | Partly Cloudy | FEW015 SCT090 | 81 | 73 | 77% | 86 | 29.95 | 1014.0 | ||||||
| 04 | 13:53 | NE 9 | 10.00 | Fair | CLR | 81 | 73 | 82 | 77 | 77% | 86 | 29.96 | 1014.4 | ||||
| 04 | 12:53 | Vrbl 7 | 10.00 | A Few Clouds | FEW013 | 81 | 73 | 77% | 86 | 29.97 | 1014.7 | ||||||
| 04 | 11:53 | Vrbl 7 | 10.00 | Mostly Cloudy | BKN016 BKN021 BKN065 | 80.1 | 73 | 79% | 84 | 29.98 | 1015.0 | ||||||
| 04 | 10:53 | Calm | 10.00 | Overcast | BKN016 BKN023 OVC055 | 79 | 73 | 82% | 82 | 29.98 | 1015.1 | ||||||
| 04 | 09:53 | Calm | 10.00 | Mostly Cloudy | SCT016 BKN060 | 80.1 | 73 | 79% | 84 | 29.96 | 1014.6 | ||||||
| 04 | 08:53 | Vrbl 3 | 10.00 | Partly Cloudy | SCT013 | 79 | 73.9 | 85% | 83 | 29.95 | 1014.1 | ||||||
| Date | Time (edt) | Wind (mph) | Vis. (mi.) | Weather | Sky Cond. | Air | Dwpt | Max. | Min. | Relative Humidity | Wind Chill (°F) | Heat Index (°F) | altimeter (in) | sea level (mb) | 1 hr | 3 hr | 6 hr |
| 6 hour | |||||||||||||||||
| Temperature (ºF) | Pressure | Precipitation (in) | |||||||||||||||